Kankakee, Illinois
Current Conditions -  °F | °C
As of 2:35 AM on Friday 31 Oct 2014 (Local Time) from KIKK Reporting Station
Drizzle Drizzle  
Wind Chill: 39°   Ceiling: 5000
Heat Index: 43°   Visibility: 10mi
Dew Point: 40°   Wind: 7mph
Humidity: 88%   Direction: 270°W
Pressure: 30.04"   Gusts: NA
Location:  41.12°N, 87.86°W
Report Text: KIKK 310735Z AUTO 27006KT 10SM -DZ OVC050 06/05 A3004 RMK AO2 T00630045
Loading
Personal Weather Stations






























Interactive Weather Map New forecast layout! Learn more

10-Day Weather Forecast

Advertisements
Track Severe Weather on mobile